Map

Track Data

SID SEASON NUMBER BASIN SUBBASIN NAME ISO_TIME NATURE LAT LON WMO_WIND WMO_PRES WMO_AGENCY TRACK_TYPE DIST2LAND LANDFALL IFLAG USA_AGENCY USA_ATCF_ID USA_LAT USA_LON USA_RECORD USA_STATUS USA_WIND USA_PRES USA_SSHS USA_R34_NE USA_R34_SE USA_R34_SW USA_R34_NW USA_R50_NE USA_R50_SE USA_R50_SW USA_R50_NW USA_R64_NE USA_R64_SE USA_R64_SW USA_R64_NW USA_POCI USA_ROCI USA_RMW USA_EYE TOKYO_LAT TOKYO_LON TOKYO_GRADE TOKYO_WIND TOKYO_PRES TOKYO_R50_DIR TOKYO_R50_LONG TOKYO_R50_SHORT TOKYO_R30_DIR TOKYO_R30_LONG TOKYO_R30_SHORT TOKYO_LAND CMA_LAT CMA_LON CMA_CAT CMA_WIND CMA_PRES HKO_LAT HKO_LON HKO_CAT HKO_WIND HKO_PRES NEWDELHI_LAT NEWDELHI_LON NEWDELHI_GRADE NEWDELHI_WIND NEWDELHI_PRES NEWDELHI_CI NEWDELHI_DP NEWDELHI_POCI REUNION_LAT REUNION_LON REUNION_TYPE REUNION_WIND REUNION_PRES REUNION_TNUM REUNION_CI REUNION_RMW REUNION_R34_NE REUNION_R34_SE REUNION_R34_SW REUNION_R34_NW REUNION_R50_NE REUNION_R50_SE REUNION_R50_SW REUNION_R50_NW REUNION_R64_NE REUNION_R64_SE REUNION_R64_SW REUNION_R64_NW BOM_LAT BOM_LON BOM_TYPE BOM_WIND BOM_PRES BOM_TNUM BOM_CI BOM_RMW BOM_R34_NE BOM_R34_SE BOM_R34_SW BOM_R34_NW BOM_R50_NE BOM_R50_SE BOM_R50_SW BOM_R50_NW BOM_R64_NE BOM_R64_SE BOM_R64_SW BOM_R64_NW BOM_ROCI BOM_POCI BOM_EYE BOM_POS_METHOD BOM_PRES_METHOD NADI_LAT NADI_LON NADI_CAT NADI_WIND NADI_PRES WELLINGTON_LAT WELLINGTON_LON WELLINGTON_WIND WELLINGTON_PRES DS824_LAT DS824_LON DS824_STAGE DS824_WIND DS824_PRES TD9636_LAT TD9636_LON TD9636_STAGE TD9636_WIND TD9636_PRES TD9635_LAT TD9635_LON TD9635_WIND TD9635_PRES TD9635_ROCI NEUMANN_LAT NEUMANN_LON NEUMANN_CLASS NEUMANN_WIND NEUMANN_PRES MLC_LAT MLC_LON MLC_CLASS MLC_WIND MLC_PRES USA_GUST BOM_GUST BOM_GUST_PER REUNION_GUST REUNION_GUST_PER USA_SEAHGT USA_SEARAD_NE USA_SEARAD_SE USA_SEARAD_SW USA_SEARAD_NW STORM_SPEED STORM_DIR
2021219N08193 2021 60 EP CP OMAIS 2021-08-07 00:00:00 NR 7.70000 193.000 main 1750 1750 O_____________ jtwc_wp WP162021 7.70000 -167.000 DB 15 1012 -3 1013 60 30 8 278
2021219N08193 2021 60 EP CP OMAIS 2021-08-07 03:00:00 NR 7.75509 192.585 main 1772 1772 P_____________ WP162021 7.75509 -167.415 DB 17 1011 -3 1013 60 35 8 277
2021219N08193 2021 60 EP CP OMAIS 2021-08-07 06:00:00 NR 7.80000 192.200 main 1803 1803 O_____________ jtwc_wp WP162021 7.80000 -167.800 DB 20 1011 -3 1013 60 40 7 277
2021219N08193 2021 60 EP CP OMAIS 2021-08-07 09:00:00 NR 7.84747 191.870 main 1821 1811 P_____________ WP162021 7.84747 -168.130 DB 20 1011 -3 1013 60 40 6 289
2021219N08193 2021 60 EP CP OMAIS 2021-08-07 12:00:00 NR 8.00000 191.600 main 1817 1799 O_____________ jtwc_wp WP162021 8.00000 -168.400 DB 20 1011 -3 1013 60 40 7 318
2021219N08193 2021 60 EP CP OMAIS 2021-08-07 15:00:00 NR 8.36244 191.400 main 1790 1763 P_____________ WP162021 8.36244 -168.600 DB 22 1011 -3 1013 60 40 9 334
2021219N08193 2021 60 EP CP OMAIS 2021-08-07 18:00:00 NR 8.80000 191.200 main 1763 1737 O_____________ jtwc_wp WP162021 8.80000 -168.800 DB 25 1011 -3 1013 60 40 9 332
2021219N08193 2021 60 EP CP OMAIS 2021-08-07 21:00:00 NR 9.17988 190.952 main 1737 1728 P_____________ WP162021 9.17988 -169.048 DB 25 1011 -3 1013 60 40 9 320
2021219N08193 2021 60 EP CP OMAIS 2021-08-08 00:00:00 NR 9.50000 190.600 main 1734 1731 O_____________ jtwc_wp WP162021 9.50000 -169.400 DB 25 1011 -3 1013 60 40 10 304
2021219N08193 2021 60 EP CP OMAIS 2021-08-08 03:00:00 NR 9.74494 190.110 main 1748 1739 P_____________ WP162021 9.74494 -169.890 DB 22 1010 -3 1012 55 35 12 290
2021219N08193 2021 60 EP CP OMAIS 2021-08-08 06:00:00 NR 9.90000 189.500 main 1771 1771 O_____________ jtwc_wp WP162021 9.90000 -170.500 DB 20 1010 -3 1012 50 30 13 279
2021219N08193 2021 60 EP CP OMAIS 2021-08-08 09:00:00 NR 9.95778 188.762 main 1811 1811 P_____________ WP162021 9.95778 -171.238 DB 20 1010 -3 1012 50 30 14 274
2021219N08193 2021 60 EP CP OMAIS 2021-08-08 12:00:00 NR 10.0000 188.100 main 1862 1862 O_____________ jtwc_wp WP162021 10.0000 -171.900 DB 20 1011 -3 1012 50 30 10 280
2021219N08193 2021 60 EP CP OMAIS 2021-08-08 15:00:00 NR 10.1422 187.733 main 1884 1875 P_____________ WP162021 10.1423 -172.267 DB 20 1011 -3 1012 50 30 7 297
2021219N08193 2021 60 EP CP OMAIS 2021-08-08 18:00:00 NR 10.3000 187.500 main 1883 1883 O_____________ jtwc_wp WP162021 10.3000 -172.500 DB 20 1011 -3 1012 50 30 4 299
2021219N08193 2021 60 EP CP OMAIS 2021-08-08 21:00:00 NR 10.3469 187.362 main 1891 1883 P_____________ WP162021 10.3469 -172.638 DB 20 1011 -3 1012 50 30 5 292
2021219N08193 2021 60 EP CP OMAIS 2021-08-09 00:00:00 NR 10.5000 187.000 main 1906 1906 O_____________ jtwc_wp WP162021 10.5000 -173.000 DB 20 1011 -3 1012 50 30 15 296
2021219N08193 2021 60 EP CP OMAIS 2021-08-09 03:00:00 NR 11.0011 186.011 main 1949 1949 P_____________ WP162021 11.0011 -173.989 DB 20 1011 -3 1012 50 30 23 296
2021219N08193 2021 60 EP CP OMAIS 2021-08-09 06:00:00 NR 11.5000 184.900 main 2006 2006 O_____________ jtwc_wp WP162021 11.5000 -175.100 DB 20 1011 -3 1012 50 30 18 291
2021219N08193 2021 60 EP CP OMAIS 2021-08-09 09:00:00 NR 11.6511 184.279 main 2044 2044 P_____________ WP162021 11.6511 -175.721 DB 20 1011 -3 1012 50 30 13 279
2021219N08193 2021 60 EP CP OMAIS 2021-08-09 12:00:00 NR 11.7000 183.600 main 2106 2106 O_____________ jtwc_wp WP162021 11.7000 -176.400 DB 20 1011 -3 1012 50 30 19 276
2021219N08193 2021 60 EP CP OMAIS 2021-08-09 15:00:00 NR 11.8592 182.320 main 2211 2211 P_____________ WP162021 11.8592 -177.680 DB 20 1009 -3 1012 50 30 25 277
2021219N08193 2021 60 EP CP OMAIS 2021-08-09 18:00:00 NR 12.0000 181.100 main 2315 2315 O_____________ jtwc_wp WP162021 12.0000 -178.900 DB 20 1007 -3 1012 50 30 18 277
2021219N08193 2021 60 EP CP OMAIS 2021-08-09 21:00:00 NR 12.0715 180.522 main 2365 2365 P_____________ WP162021 12.0715 -179.478 DB 20 1007 -3 1012 50 30 9 276
2021219N08193 2021 60 EP CP OMAIS 2021-08-10 00:00:00 NR 12.1000 180.200 main 2394 2394 O_____________ jtwc_wp WP162021 12.1000 -179.800 DB 20 1007 -3 1012 50 30 7 273
2021219N08193 2021 60 WP MM OMAIS 2021-08-10 03:00:00 NR 12.1074 179.785 main 2431 2431 P_____________ WP162021 12.1074 179.785 DB 22 1009 -3 1012 85 30 8 270
2021219N08193 2021 60 WP MM OMAIS 2021-08-10 06:00:00 TS 12.1000 179.400 main 2469 2469 O_____________ jtwc_wp WP162021 12.1000 179.400 TD 25 1011 -1 1012 120 30 7 269
2021219N08193 2021 60 WP MM OMAIS 2021-08-10 09:00:00 TS 12.0925 179.035 main 2507 2507 P_____________ WP162021 12.0925 179.035 TD 25 1009 -1 1012 130 30 7 270
2021219N08193 2021 60 WP MM OMAIS 2021-08-10 12:00:00 TS 12.1000 178.700 main 2536 2536 O_____________ jtwc_wp WP162021 12.1000 178.700 TD 25 1007 -1 1013 140 30 6 275
2021219N08193 2021 60 WP MM OMAIS 2021-08-10 15:00:00 TS 12.1499 178.415 main 2564 2559 P_____________ WP162021 12.1499 178.415 TD 32 1006 -1 1012 127 32 6 283
2021219N08193 2021 60 WP MM OMAIS 2021-08-10 18:00:00 TS 12.2400 178.080 main 2588 2588 O__O__________ jtwc_wp WP162021 12.2000 178.100 TS 40 1005 0 55 1012 115 35 12.4000 178.000 TD 25 1004 8 279
2021219N08193 2021 60 WP MM OMAIS 2021-08-10 21:00:00 TS 12.2651 177.655 main 2621 2621 P__P__________ WP162021 12.2001 177.657 TS 37 1005 0 55 1012 115 35 12.3951 177.650 TD 27 1003 8 273
2021219N08193 2021 60 WP MM OMAIS 2021-08-11 00:00:00 TS 12.2857 177.243 main 2669 2669 O__O__________ jtwc_wp WP162021 12.2000 177.200 TS 35 1006 0 55 50 1013 115 35 12.4000 177.300 TD 30 1002 7 275
2021219N08193 2021 60 WP MM OMAIS 2021-08-11 03:00:00 TS 12.3362 176.893 main 2698 2698 P__P__________ WP162021 12.2574 176.835 TS 32 1006 -1 1011 112 35 12.4150 176.950 TD 30 1002 7 275
2021219N08193 2021 60 WP MM OMAIS 2021-08-11 06:00:00 TS 12.3500 176.550 main 2722 2722 O__O__________ jtwc_wp WP162021 12.3000 176.500 TD 30 1006 -1 1010 110 35 12.4000 176.600 TD 30 1002 40 7 265
2021219N08193 2021 60 WP MM OMAIS 2021-08-11 09:00:00 TS 12.2749 176.207 main 2766 2766 P__P__________ WP162021 12.2574 176.157 TD 30 1007 -1 1011 122 35 12.2924 176.257 TD 30 1002 7 258
2021219N08193 2021 60 WP MM OMAIS 2021-08-11 12:00:00 TS 12.2000 175.850 main 2800 2800 O__O__________ jtwc_wp WP162021 12.2000 175.800 TD 30 1008 -1 1012 135 35 12.2000 175.900 TD 30 1002 7 264
2021219N08193 2021 60 WP MM OMAIS 2021-08-11 15:00:00 TS 12.1950 175.461 main 2823 2798 P__P__________ WP162021 12.1624 175.422 TD 30 1007 -1 1010 127 35 12.2275 175.500 TD 30 1002 8 274
2021219N08193 2021 60 WP MM OMAIS 2021-08-11 18:00:00 TS 12.2500 175.050 main 2807 2782 O__O__________ jtwc_wp WP162021 12.2000 175.000 TD 30 1007 -1 1009 120 35 12.3000 175.100 TD 30 1002 8 282
2021219N08193 2021 60 WP MM OMAIS 2021-08-11 21:00:00 TS 12.3636 174.655 main 2791 2771 P__P__________ WP162021 12.3848 174.538 TD 30 1005 -1 1008 97 37 12.3423 174.772 TD 30 1002 9 287
2021219N08193 2021 60 WP MM OMAIS 2021-08-12 00:00:00 TS 12.5000 174.200 main 2771 2751 O__O__________ jtwc_wp WP162021 12.6000 174.000 TD 30 1004 -1 1008 75 40 12.4000 174.400 TD 30 1002 10 284
2021219N08193 2021 60 WP MM OMAIS 2021-08-12 03:00:00 TS 12.6187 173.641 main 2745 2721 P__P__________ WP162021 12.7374 173.388 TD 30 1004 -1 1008 70 35 12.4999 173.895 TD 30 1002 12 280
2021219N08193 2021 60 WP MM OMAIS 2021-08-12 06:00:00 TS 12.7000 173.000 main 2721 2684 O__O__________ jtwc_wp WP162021 12.8000 172.700 TD 30 1004 -1 1008 65 30 12.6000 173.300 TD 30 1002 13 274
2021219N08193 2021 60 WP MM OMAIS 2021-08-12 09:00:00 TS 12.7189 172.277 main 2684 2648 P__P__________ WP162021 12.7725 171.950 TD 30 1003 -1 1008 67 32 12.6653 172.605 TD 30 1002 14 270
2021219N08193 2021 60 WP MM OMAIS 2021-08-12 12:00:00 TS 12.7000 171.600 main 2648 2628 O__O__________ jtwc_wp WP162021 12.7000 171.200 TD 30 1003 -1 1008 70 35 12.7000 172.000 TD 30 1002 11 267
2021219N08193 2021 60 WP MM OMAIS 2021-08-12 15:00:00 TS 12.6706 171.176 main 2628 2595 P__P__________ WP162021 12.6346 170.550 TD 32 1003 -1 1009 75 40 12.7066 171.802 TD 30 1002 9 267
2021219N08193 2021 60 WP MM OMAIS 2021-08-12 18:00:00 TS 12.6500 170.700 main 2605 2569 O__O__________ jtwc_wp WP162021 12.6000 169.900 TS 35 1004 0 1010 80 45 12.7000 171.500 TD 30 1002 13 270
2021219N08193 2021 60 WP MM OMAIS 2021-08-12 21:00:00 TS 12.6794 169.848 main 2564 2531 P__P__________ WP162021 12.6576 169.135 TS 35 1005 0 1010 77 47 12.7011 170.560 TD 30 1002 17 272
2021219N08193 2021 60 WP MM OMAIS 2021-08-13 00:00:00 TS 12.7000 168.950 main 2531 2508 O__O__________ jtwc_wp WP162021 12.7000 168.400 TS 35 1007 0 50 35 1010 75 50 12.7000 169.500 TD 30 1002 15 269
2021219N08193 2021 60 WP MM OMAIS 2021-08-13 03:00:00 TS 12.6493 168.339 main 2494 2476 P__P__________ WP162021 12.6071 167.835 TS 37 1005 0 45 42 1009 92 50 12.6915 168.842 TD 30 1002 12 265
2021219N08193 2021 60 WP MM OMAIS 2021-08-13 06:00:00 TS 12.6000 167.750 main 2476 2425 O__O__________ jtwc_wp WP162021 12.5000 167.300 TS 40 1004 0 40 50 1009 110 50 12.7000 168.200 TD 30 1002 14 269
2021219N08193 2021 60 WP MM OMAIS 2021-08-13 09:00:00 TS 12.6253 166.954 main 2425 2376 P__P__________ WP162021 12.5000 166.650 TS 35 1006 0 20 25 1009 120 47 12.7505 167.258 TD 30 1002 16 272
2021219N08193 2021 60 WP MM OMAIS 2021-08-13 12:00:00 TS 12.6500 166.150 main 2377 2328 O__O__________ jtwc_wp WP162021 12.5000 166.000 TD 30 1008 -1 1010 130 45 12.8000 166.300 TD 30 1002 14 269
2021219N08193 2021 60 WP MM OMAIS 2021-08-13 15:00:00 TS 12.5994 165.525 main 2321 2282 P__P__________ WP162021 12.3918 165.502 TD 27 1008 -1 1010 130 47 12.8071 165.547 TD 30 1002 12 265
2021219N08193 2021 60 WP MM OMAIS 2021-08-13 18:00:00 TS 12.5500 164.900 main 2282 2234 O__O__________ jtwc_wp WP162021 12.3000 164.900 TD 25 1008 -1 1010 130 50 12.8000 164.900 TD 30 1002 14 269
2021219N08193 2021 60 WP MM OMAIS 2021-08-13 21:00:00 TS 12.5714 164.115 main 2227 2175 P__P__________ WP162021 12.3433 163.908 TD 25 1008 -1 1010 135 45 12.7995 164.322 TD 30 1002 16 272
2021219N08193 2021 60 WP MM OMAIS 2021-08-14 00:00:00 TS 12.6000 163.300 main 2175 2132 O__O__________ jtwc_wp WP162021 12.4000 162.900 TD 25 1009 -1 1010 140 40 12.8000 163.700 TD 30 1002 15 270
2021219N08193 2021 60 WP MM OMAIS 2021-08-14 03:00:00 TS 12.5785 162.556 main 2132 2090 P__P__________ WP162021 12.3569 162.240 TD 25 1008 -1 1009 140 40 12.8002 162.872 TD 30 1002 14 268
2021219N08193 2021 60 WP MM OMAIS 2021-08-14 06:00:00 TS 12.5500 161.850 main 2090 2041 O__O__________ jtwc_wp WP162021 12.3000 161.700 TD 25 1008 -1 1009 140 40 12.8000 162.000 TD 30 1002 45 13 269
2021219N08193 2021 60 WP MM OMAIS 2021-08-14 09:00:00 TS 12.5496 161.194 main 2041 2011 P__P__________ WP162021 12.2995 161.153 TD 25 1009 -1 1010 130 40 12.7997 161.235 TD 30 1002 13 270
2021219N08193 2021 60 WP MM OMAIS 2021-08-14 12:00:00 TS 12.5500 160.500 main 2011 1959 O__O__________ jtwc_wp WP162021 12.3000 160.500 TD 25 1010 -1 1011 120 40 12.8000 160.500 TD 30 1002 15 268
2021219N08193 2021 60 WP MM OMAIS 2021-08-14 15:00:00 TS 12.5099 159.687 main 1959 1919 P__P__________ WP162021 12.2203 159.587 TD 22 1010 -1 1011 120 40 12.7994 159.787 TD 30 1002 17 268
2021219N08193 2021 60 WP MM OMAIS 2021-08-14 18:00:00 NR 12.5000 158.800 main 1913 1879 O__O__________ jtwc_wp WP162021 12.2000 158.600 DB 20 1011 -3 1011 120 40 12.8000 159.000 TD 30 1002 18 272
2021219N08193 2021 60 WP MM OMAIS 2021-08-14 21:00:00 NR 12.5777 157.838 main 1876 1852 P__P__________ WP162021 12.3625 157.690 DB 22 1010 -3 1011 120 40 12.7930 157.985 TD 27 1003 18 276
2021219N08193 2021 60 WP MM OMAIS 2021-08-15 00:00:00 TS 12.7000 156.950 main 1852 1836 O__O__________ jtwc_wp WP162021 12.6000 156.900 TD 25 1010 -1 1011 120 40 12.8000 157.000 TD 25 1004 40 15 280
2021219N08193 2021 60 WP MM OMAIS 2021-08-15 03:00:00 TS 12.8356 156.313 main 1836 1829 P__P__________ WP162021 12.8219 156.327 TD 22 1010 -1 1010 110 40 12.8494 156.298 TD 25 1004 12 282
2021219N08193 2021 60 WP MM OMAIS 2021-08-15 06:00:00 NR 12.9500 155.750 main 1840 1819 O__O__________ jtwc_wp WP162021 13.0000 155.800 DB 20 1010 -3 1010 100 40 12.9000 155.700 TD 25 1004 40 12 276
2021219N08193 2021 60 WP MM OMAIS 2021-08-15 09:00:00 NR 12.9562 155.082 main 1819 1801 P__P__________ WP162021 13.0350 155.115 DB 20 1011 -3 1011 105 40 12.8773 155.050 TD 25 1004 13 272
2021219N08193 2021 60 WP MM OMAIS 2021-08-15 12:00:00 NR 13.0000 154.400 main 1801 1796 O__O__________ jtwc_wp WP162021 13.1000 154.400 DB 20 1012 -3 1012 110 40 12.9000 154.400 TD 25 1004 13 282
2021219N08193 2021 60 WP MM OMAIS 2021-08-15 15:00:00 NR 13.2309 153.761 main 1809 1808 P__P__________ WP162021 13.3997 153.750 DB 17 1012 -3 1012 110 40 13.0622 153.772 TD 25 1004 14 292
2021219N08193 2021 60 WP MM OMAIS 2021-08-15 18:00:00 NR 13.5000 153.100 main 1831 1828 O__O__________ jtwc_wp WP162021 13.7000 153.100 DB 15 1012 -3 1012 110 40 13.3000 153.100 TD 25 1004 14 289
2021219N08193 2021 60 WP MM OMAIS 2021-08-15 21:00:00 NR 13.6805 152.385 main 1844 1840 P__P__________ WP162021 13.8096 152.437 DB 17 1012 -3 1012 110 40 13.5514 152.332 TD 22 1005 15 282
2021219N08193 2021 60 WP MM OMAIS 2021-08-16 00:00:00 NR 13.8000 151.600 main 1840 1825 O__O__________ jtwc_wp WP162021 13.8000 151.700 DB 20 1012 -3 1012 110 40 13.8000 151.500 LW 20 1006 16 276
2021219N08193 2021 60 WP MM OMAIS 2021-08-16 03:00:00 NR 13.8615 150.715 main 1829 1813 P__P__________ WP162021 13.7303 150.792 DB 17 1011 -3 1011 97 45 13.9933 150.648 LW 20 1006 17 272
2021219N08193 2021 60 WP MM OMAIS 2021-08-16 06:00:00 NR 13.8739 149.823 main 1811 1802 O__P__________ jtwc_wp WP162021 13.6000 149.900 DB 15 1010 -3 1010 85 50 14.1492 149.769 LW 20 1006 16 270
2021219N08193 2021 60 WP MM OMAIS 2021-08-16 09:00:00 NR 13.8639 149.072 main 1802 1795 P__P__________ WP162021 13.4488 149.288 DB 15 1010 -3 1010 85 50 14.2805 148.880 LW 20 1006 15 269
2021219N08193 2021 60 WP MM OMAIS 2021-08-16 12:00:00 NR 13.8500 148.300 main 1795 1781 O__O__________ jtwc_wp WP162021 13.3000 148.600 DB 15 1011 -3 1011 85 50 14.4000 148.000 LW 20 1006 17 266
2021219N08193 2021 60 WP MM OMAIS 2021-08-16 15:00:00 NR 13.7533 147.370 main 1781 1758 P_____________ WP162021 13.1713 147.442 DB 17 1009 -3 1010 110 50 LW 19 263
2021219N08193 2021 60 WP MM OMAIS 2021-08-16 18:00:00 NR 13.6178 146.391 main 1759 1749 O_____________ jtwc_wp WP162021 13.1000 146.300 DB 20 1008 -3 1010 135 50 LW 17 260
2021219N08193 2021 60 WP MM OMAIS 2021-08-16 21:00:00 NR 13.4563 145.685 main 1750 1721 P_____________ WP162021 13.1264 145.648 DB 20 1008 -3 1010 140 50 LW 13 252
2021219N08193 2021 60 WP MM OMAIS 2021-08-17 00:00:00 NR 13.2000 145.100 main 1722 1722 O_____________ jtwc_wp WP162021 13.2000 145.100 DB 20 1009 -3 1011 145 50 LW 13 261
2021219N08193 2021 60 WP MM OMAIS 2021-08-17 03:00:00 NR 13.2500 144.330 main 1743 1743 P_____________ WP162021 13.2500 144.330 DB 17 1010 -3 1011 107 50 LW 16 274
2021219N08193 2021 60 WP MM OMAIS 2021-08-17 06:00:00 NR 13.3000 143.500 main 1758 1741 O_____________ jtwc_wp WP162021 13.3000 143.500 DB 15 1011 -3 1011 70 50 LW 16 273
2021219N08193 2021 60 WP MM OMAIS 2021-08-17 09:00:00 NR 13.3273 142.692 main 1741 1723 P_____________ WP162021 13.3273 142.692 DB 12 1011 -3 1011 115 65 LW 16 274
2021219N08193 2021 60 WP MM OMAIS 2021-08-17 12:00:00 NR 13.4000 141.900 main 1723 1698 O_____________ jtwc_wp WP162021 13.4000 141.900 DB 10 1011 -3 1011 160 80 LW 15 279
2021219N08193 2021 60 WP MM OMAIS 2021-08-17 15:00:00 NR 13.5773 141.128 main 1688 1616 P_____________ WP162021 13.5773 141.128 DB 12 1011 -3 1011 165 80 LW 15 285
2021219N08193 2021 60 WP MM OMAIS 2021-08-17 18:00:00 NR 13.8000 140.400 main 1616 1546 O_____________ jtwc_wp WP162021 13.8000 140.400 DB 15 1012 -3 1012 170 80 LW 15 287
2021219N08193 2021 60 WP MM OMAIS 2021-08-17 21:00:00 NR 14.0150 139.690 main 1546 1487 P_____________ WP162021 14.0150 139.690 DB 15 1011 -3 1011 170 80 LW 13 288
2021219N08193 2021 60 WP MM OMAIS 2021-08-18 00:00:00 NR 14.2000 139.100 main 1487 1448 O_____________ jtwc_wp WP162021 14.2000 139.100 DB 15 1010 -3 1010 170 80 LW 10 287
2021219N08193 2021 60 WP MM OMAIS 2021-08-18 03:00:00 NR 14.2997 138.705 main 1448 1418 P_____________ WP162021 14.2997 138.705 DB 15 1007 -3 1008 147 65 LW 7 286
2021219N08193 2021 60 WP MM OMAIS 2021-08-18 06:00:00 NR 14.4000 138.400 main 1418 1387 O_____________ jtwc_wp WP162021 14.4000 138.400 DB 15 1005 -3 1007 125 50 LW 7 293
2021219N08193 2021 60 WP MM OMAIS 2021-08-18 09:00:00 NR 14.5775 138.035 main 1379 1370 P_____________ WP162021 14.5775 138.035 DB 15 1007 -3 1008 125 50 LW 8 314
2021219N08193 2021 60 WP MM OMAIS 2021-08-18 12:00:00 TS 14.9200 137.840 1008 tokyo main 1364 1350 OO____________ jtwc_wp WP162021 14.8000 137.700 DB 15 1009 -3 1009 125 50 15.4000 138.400 2 1008 0 0 0 LW 8 327
2021219N08193 2021 60 WP MM OMAIS 2021-08-18 15:00:00 TS 15.2538 137.577 main 1352 1308 PP____________ WP162021 14.9967 137.546 DB 17 1007 -3 1008 125 45 15.7681 137.638 2 1007 0 0 LW 11 315
2021219N08193 2021 60 WP MM OMAIS 2021-08-18 18:00:00 TS 15.6750 137.050 1006 tokyo main 1312 1243 OOO___________ jtwc_wp WP162021 15.3000 137.200 DB 20 1005 -3 1008 125 40 16.1000 136.900 2 1006 0 0 0 15.9000 136.900 1 25 1005 LW 16 304
2021219N08193 2021 60 WP MM OMAIS 2021-08-18 21:00:00 TS 16.1350 136.211 main 1233 1174 PPP___________ WP162021 15.8065 136.246 DB 20 1006 -3 1008 125 40 16.3846 136.199 2 1007 0 0 16.2928 136.165 1 25 1005 LW 19 299
2021219N08193 2021 60 WP MM OMAIS 2021-08-19 00:00:00 TS 16.5909 135.364 1008 tokyo main 1174 1116 OOO___________ jtwc_wp WP162021 16.4000 135.200 DB 20 1008 -3 1008 125 40 16.7000 135.500 2 1008 0 0 0 16.7000 135.400 1 25 1005 LW 19 301
2021219N08193 2021 60 WP MM OMAIS 2021-08-19 03:00:00 TS 17.0955 134.555 main 1122 1080 PPP___________ WP162021 17.0017 134.575 DB 22 1006 -3 1007 112 40 17.1503 134.706 2 1007 0 0 17.1226 134.605 1 25 1005 LW 17 303
2021219N08193 2021 60 WP MM OMAIS 2021-08-19 06:00:00 TS 17.4990 133.876 1006 tokyo main 1080 1048 OOO___________ jtwc_wp WP162021 17.5000 134.100 TD 25 1005 -1 1007 100 40 17.6000 134.000 2 1006 0 0 0 17.5000 133.900 1 25 1005 LW 13 299
2021219N08193 2021 60 WP MM OMAIS 2021-08-19 09:00:00 TS 17.7456 133.341 main 1039 1013 PPP___________ WP162021 17.7447 133.607 TD 25 1005 -1 1008 100 40 17.9294 133.554 2 1007 0 0 17.7871 133.397 1 25 1005 LW 10 294
2021219N08193 2021 60 WP MM OMAIS 2021-08-19 12:00:00 TS 17.9250 132.875 1008 tokyo main 1013 985 OOOO__________ jtwc_wp WP162021 17.9000 133.100 TD 25 1005 -1 1009 100 40 18.2000 133.200 2 1008 0 0 0 18.0000 133.000 1 25 1005 17.6000 132.200 LW 20 1006 9 295
2021219N08193 2021 60 WP MM OMAIS 2021-08-19 15:00:00 TS 18.1370 132.448 main 975 958 PPPP__________ WP162021 18.1576 132.500 TD 25 1006 -1 1009 115 40 18.4800 132.750 2 1007 0 0 18.1724 132.592 1 27 1003 17.7321 132.008 LW 20 1006 9 296
2021219N08193 2021 60 WP MM OMAIS 2021-08-19 18:00:00 TS 18.3196 132.042 1006 tokyo main 949 928 OOOP__________ jtwc_wp WP162021 18.4000 131.900 TD 25 1007 -1 1009 130 40 18.7000 132.300 2 1006 0 0 0 18.3000 132.200 1 29 1002 17.8724 131.825 LW 20 1006 8 293
2021219N08193 2021 60 WP MM OMAIS 2021-08-19 21:00:00 TS 18.4617 131.659 main 934 905 PPPP__________ WP162021 18.5723 131.377 TD 25 1007 -1 1009 130 40 18.8374 131.885 2 1007 0 0 18.4074 131.800 1 29 1002 18.0267 131.604 LW 20 1006 8 289
2021219N08193 2021 60 WP MM OMAIS 2021-08-20 00:00:00 TS 18.5750 131.275 1008 tokyo main 905 870 OOOO__________ jtwc_wp WP162021 18.7000 130.900 TD 25 1008 -1 1010 130 40 18.9000 131.500 2 1008 0 0 0 18.5000 131.400 1 29 1002 18.2000 131.300 LW 20 1006 8 285
2021219N08193 2021 60 WP MM OMAIS 2021-08-20 03:00:00 TS 18.6621 130.851 main 877 844 PPPP__________ WP162021 18.7850 130.420 TD 30 1005 -1 1009 117 40 18.8999 131.135 2 1008 0 0 18.5925 130.985 1 29 1002 18.3708 130.864 LW 22 1005 8 284
2021219N08193 2021 60 WP MM OMAIS 2021-08-20 06:00:00 TS 18.7750 130.450 1008 tokyo main 851 823 OOOO__________ jtwc_wp WP162021 18.9000 130.000 TS 35 1002 0 50 50 1008 105 40 18.9000 130.800 2 1008 0 0 0 18.7000 130.600 1 29 1002 18.6000 130.400 TD 25 1004 8 291
2021219N08193 2021 60 WP MM OMAIS 2021-08-20 09:00:00 TS 18.9443 130.091 main 823 794 PPPP__________ WP162021 19.1124 129.648 TS 35 1003 0 55 1008 100 40 18.9399 130.485 2 1006 0 0 18.8049 130.285 1 31 1001 18.9201 129.948 TD 27 1002 7 305
2021219N08193 2021 60 WP MM OMAIS 2021-08-20 12:00:00 TS 19.2000 129.800 35 1004 tokyo main 794 785 OOOO__________ jtwc_wp WP162021 19.4000 129.400 TS 35 1005 0 60 1009 95 40 19.1000 130.200 3 35 1004 0 9 60 60 0 19.0000 130.000 2 34 1000 19.3000 129.600 TD 30 1000 7 324
2021219N08193 2021 60 WP MM OMAIS 2021-08-20 15:00:00 TS 19.5196 129.647 main 777 764 PPPP__________ WP162021 19.6972 129.329 TS 37 1003 0 60 1008 102 40 19.3946 130.001 3 35 1003 0 9 60 60 19.3097 129.744 2 34 1000 19.6771 129.514 TD 32 999 9 335
2021219N08193 2021 60 WP MM OMAIS 2021-08-20 18:00:00 TS 19.9750 129.425 35 1002 tokyo main 766 734 OOOO__________ jtwc_wp WP162021 20.1000 129.200 TS 40 1002 0 20 60 30 1008 110 40 19.9000 129.700 3 35 1002 0 9 60 60 0 19.8000 129.400 2 34 1000 20.1000 129.400 TS 35 998 13 328
2021219N08193 2021 60 WP MM OMAIS 2021-08-20 21:00:00 TS 20.6436 128.890 main 734 706 PPPP__________ WP162021 20.6930 128.731 TS 42 1000 0 35 70 20 1007 110 32 20.7232 129.067 3 37 1001 0 9 75 60 20.5656 128.794 2 36 999 20.5927 128.968 TS 37 996 17 322
2021219N08193 2021 60 WP MM OMAIS 2021-08-21 00:00:00 TS 21.3000 128.300 40 1000 tokyo main 706 685 OOOO__________ jtwc_wp WP162021 21.3000 128.200 TS 45 999 0 50 80 10 1007 110 25 21.5000 128.400 3 40 1000 0 2 90 60 0 21.3000 128.200 2 38 998 21.1000 128.400 TS 40 994 14 318
2021219N08193 2021 60 WP MM OMAIS 2021-08-21 03:00:00 TS 21.6910 127.892 main 686 645 PPPP__________ WP162021 21.7222 127.869 TS 47 997 0 52 82 17 1007 110 25 21.8095 128.004 3 40 1000 0 2 90 60 21.6520 127.904 2 38 998 21.5804 127.790 TS 42 992 10 316
2021219N08193 2021 60 WP MM OMAIS 2021-08-21 06:00:00 TS 22.0000 127.575 40 1000 tokyo main 645 598 OOOO__________ jtwc_wp WP162021 22.1000 127.600 TS 50 996 0 55 85 25 20 39 1007 110 25 22.0000 127.700 3 40 1000 0 2 90 60 0 21.9000 127.700 2 38 998 22.0000 127.300 TS 45 990 9 322
2021219N08193 2021 60 WP MM OMAIS 2021-08-21 09:00:00 TS 22.3949 127.301 main 598 562 PPPP__________ WP162021 22.5649 127.300 TS 52 994 0 52 77 18 34 1007 105 22 22.3925 127.335 3 42 999 0 2 90 60 22.3075 127.408 2 41 996 22.3146 127.162 TS 45 990 9 328
2021219N08193 2021 60 WP MM OMAIS 2021-08-21 12:00:00 TS 22.7750 127.050 45 998 tokyo main 562 525 OOOO__________ jtwc_wp WP162021 23.0000 127.000 TS 55 993 0 50 70 17 30 1008 100 20 22.8000 127.000 3 45 998 0 2 90 60 0 22.7000 127.100 2 44 995 22.6000 127.100 TS 45 990 65 8 324
2021219N08193 2021 60 WP MM OMAIS 2021-08-21 15:00:00 TS 23.0606 126.776 main 522 483 PPPP__________ WP162021 23.3149 126.700 TS 52 993 0 62 77 25 34 1007 105 22 23.0725 126.766 3 45 997 0 2 90 60 22.9349 126.799 2 46 993 22.9200 126.837 TS 45 990 8 319
2021219N08193 2021 60 WP MM OMAIS 2021-08-21 18:00:00 TS 23.3750 126.475 45 996 tokyo main 483 433 OOOO__________ jtwc_wp WP162021 23.6000 126.400 TS 50 994 0 75 85 30 45 33 39 1007 110 25 23.4000 126.500 3 45 996 0 2 90 60 0 23.2000 126.500 3 48 992 23.3000 126.500 TS 45 990 10 322
2021219N08193 2021 60 WP MM OMAIS 2021-08-21 21:00:00 TS 23.8244 126.132 45 994 tokyo main 433 401 POPP__________ WP162021 23.9350 126.092 TS 47 996 0 62 65 30 37 1007 110 27 23.9000 126.100 3 45 994 0 2 90 60 0 23.6700 126.193 3 48 992 23.7926 126.143 TS 42 992 11 328
2021219N08193 2021 60 WP MM OMAIS 2021-08-22 00:00:00 TS 24.2750 125.850 45 994 tokyo main 401 364 OOOO__________ jtwc_wp WP162021 24.3000 125.800 TS 45 999 0 50 45 30 30 1008 110 30 24.3000 125.900 3 45 994 0 2 120 60 0 24.2000 125.900 3 48 992 24.3000 125.800 TS 40 994 10 329
2021219N08193 2021 60 WP MM OMAIS 2021-08-22 03:00:00 TS 24.6893 125.572 45 994 tokyo main 364 332 POPP__________ WP162021 24.6850 125.535 TS 42 999 0 42 32 25 30 1007 95 30 24.7000 125.600 3 45 994 0 2 120 60 0 24.6649 125.635 3 46 993 24.7074 125.520 TS 40 994 10 330
2021219N08193 2021 60 WP MM OMAIS 2021-08-22 06:00:00 TS 25.1000 125.325 45 994 tokyo main 332 314 OOOO__________ jtwc_wp WP162021 25.1000 125.300 TS 40 999 0 35 20 20 30 1006 80 30 25.1000 125.300 3 45 994 0 2 120 60 0 25.1000 125.400 2 44 995 25.1000 125.300 TS 40 994 9 333
2021219N08193 2021 60 WP MM OMAIS 2021-08-22 09:00:00 TS 25.4902 125.120 main 316 311 PPPP__________ WP162021 25.5125 125.070 TS 42 997 0 27 25 1006 80 27 25.4659 125.105 3 42 995 0 2 120 60 25.4700 125.177 2 41 996 25.5125 125.127 TS 40 994 9 340
2021219N08193 2021 60 WP MM OMAIS 2021-08-22 12:00:00 TS 25.9500 124.975 40 996 tokyo main 320 311 OOOO__________ jtwc_wp WP162021 26.0000 124.900 TS 45 996 0 35 30 1006 80 25 25.9000 125.000 3 40 996 0 2 120 60 0 25.9000 125.000 2 38 998 26.0000 125.000 TS 40 994 45 11 346
2021219N08193 2021 60 WP MM OMAIS 2021-08-22 15:00:00 TS 26.5306 124.837 main 326 326 PPPP__________ WP162021 26.5899 124.776 TS 42 997 0 40 1006 80 35 26.4750 124.898 3 40 996 0 2 120 60 26.4675 124.841 2 38 998 26.5899 124.834 TS 37 996 13 354
2021219N08193 2021 60 WP MM OMAIS 2021-08-22 18:00:00 TS 27.2500 124.825 40 996 tokyo main 333 321 OOOO__________ jtwc_wp WP162021 27.3000 124.800 TS 40 998 0 40 45 1006 80 45 27.2000 124.900 3 40 996 0 2 120 60 0 27.2000 124.800 2 38 998 27.3000 124.800 TS 35 998 15 7
2021219N08193 2021 60 WP MM OMAIS 2021-08-22 21:00:00 TS 28.0609 125.037 main 317 314 PPPP__________ WP162021 28.0754 125.076 TS 35 1001 0 20 22 1006 82 40 28.0251 125.062 3 40 996 0 2 120 60 28.0751 124.947 2 36 999 28.0679 125.061 TS 32 999 18 14
2021219N08193 2021 60 WP MM OMAIS 2021-08-23 00:00:00 TS 29.0267 125.320 40 996 tokyo main 320 319 OOOO__________ jtwc_wp WP162021 29.0000 125.400 TD 30 1004 -1 1007 85 35 29.0000 125.300 3 40 996 0 2 120 60 0 29.1000 125.200 2 34 1000 29.0000 125.400 TD 30 1000 21 10
2021219N08193 2021 60 WP MM OMAIS 2021-08-23 03:00:00 TS 30.1465 125.439 main 338 221 PPPP__________ WP162021 30.1114 125.415 TD 27 1002 -1 1006 87 42 30.1120 125.435 3 37 997 0 2 120 60 30.2195 125.385 2 34 1000 30.1398 125.601 TD 30 1000 23 7
2021219N08193 2021 60 WP MM OMAIS 2021-08-23 06:00:00 TS 31.3385 125.669 35 998 tokyo main 219 89 OOOO__________ jtwc_wp WP162021 31.3000 125.600 TD 25 1000 -1 1005 90 50 31.3000 125.700 3 35 998 0 2 120 60 0 31.4000 125.700 2 34 1000 31.4000 125.700 TD 30 1000 24 16
2021219N08193 2021 60 WP MM OMAIS 2021-08-23 09:00:00 TS 32.4631 126.238 main 78 0 PPP___________ WP162021 32.4078 126.342 TD 25 999 -1 1004 90 42 32.4408 126.181 3 35 998 0 2 120 60 32.5407 126.189 2 34 1000 TD 26 29
2021219N08193 2021 60 WP MM OMAIS 2021-08-23 12:00:00 TS 33.6000 127.133 35 998 tokyo main 21 0 OOO___________ jtwc_wp WP162021 33.5000 127.400 TD 25 998 -1 1003 90 35 33.6000 127.000 3 35 998 0 2 120 60 0 33.7000 127.000 2 34 1000 30 37
2021219N08193 2021 60 WP MM OMAIS 2021-08-23 15:00:00 TS 34.8167 128.389 main 0 0 PPP___________ WP162021 34.6310 128.556 TD 25 997 -1 1003 90 35 34.8560 128.314 3 35 998 0 2 120 60 34.9631 128.299 2 36 999 32 42
2021219N08193 2021 60 WP MM OMAIS 2021-08-23 18:00:00 MX 35.9545 129.700 35 998 tokyo main 8 8 OOO___________ jtwc_wp WP162021 35.7000 129.700 EX 25 997 -4 1003 90 35 36.0000 129.700 3 35 998 0 2 120 60 0 36.1000 129.700 2 38 998 28 43
2021219N08193 2021 60 WP MM OMAIS 2021-08-23 21:00:00 MX 36.8557 130.713 main 108 108 PPP___________ WP162021 36.6396 130.622 EX 27 993 -4 1001 75 35 36.8732 130.689 3 998 0 2 36.9461 130.781 2 38 998 22 41
2021219N08193 2021 60 WP MM OMAIS 2021-08-24 00:00:00 ET 37.5889 131.489 998 tokyo main 193 193 OOO___________ jtwc_wp WP162021 37.5000 131.400 EX 30 990 -4 999 60 35 37.6000 131.400 6 998 0 0 0 37.6000 131.600 9 38 998 18 37
2021219N08193 2021 60 WP MM OMAIS 2021-08-24 03:00:00 ET 38.2613 132.053 main 268 268 _PP___________ WP162021 EX -4 38.3516 131.934 6 998 0 0 38.1711 132.171 9 38 998 15 31
2021219N08193 2021 60 WP MM OMAIS 2021-08-24 06:00:00 ET 38.8500 132.450 998 tokyo main 318 303 _OO___________ -5 39.0000 132.300 6 998 0 0 0 38.7000 132.600 9 38 998 13 27
2021219N08193 2021 60 WP MM OMAIS 2021-08-24 09:00:00 ET 39.4114 132.799 main 305 299 _PP___________ -5 39.5007 132.520 6 998 0 0 39.3220 133.078 9 36 999 12 30
2021219N08193 2021 60 WP MM OMAIS 2021-08-24 12:00:00 ET 39.9000 133.250 998 tokyo main 312 277 _OO___________ -5 39.9000 132.900 6 998 0 0 0 39.9000 133.600 9 34 1000 13 46
2021219N08193 2021 60 WP MM OMAIS 2021-08-24 15:00:00 ET 40.3207 134.015 main 279 255 _PP___________ -5 40.2746 133.831 6 998 0 0 40.3669 134.198 9 31 1001 15 59
2021219N08193 2021 60 WP MM OMAIS 2021-08-24 18:00:00 ET 40.6500 134.900 998 tokyo main 253 253 _OO___________ -5 40.6000 134.900 6 998 0 0 0 40.7000 134.900 9 29 1002 14 67
2021219N08193 2021 60 WP MM OMAIS 2021-08-24 21:00:00 ET 40.8861 135.735 main 267 267 _PP___________ -5 40.9066 135.711 6 999 0 0 40.8657 135.759 9 29 1002 13 70
2021219N08193 2021 60 WP MM OMAIS 2021-08-25 00:00:00 ET 41.1000 136.500 1000 tokyo main 290 241 _OO___________ -5 41.2000 136.400 6 1000 0 0 0 41.0000 136.600 9 29 1002 12 65
2021219N08193 2021 60 WP MM OMAIS 2021-08-25 03:00:00 ET 41.3693 137.142 main 241 185 _PP___________ -5 41.4995 137.038 6 1001 0 0 41.2391 137.246 9 27 1002 11 56
2021219N08193 2021 60 WP MM OMAIS 2021-08-25 06:00:00 ET 41.7000 137.700 1002 tokyo main 185 133 _OO___________ -5 41.8000 137.600 6 1002 0 0 0 41.6000 137.800 9 25 1002 11 49
2021219N08193 2021 60 WP MM OMAIS 2021-08-25 09:00:00 ET 42.0909 138.244 main 133 89 _PP___________ -5 42.0619 138.102 6 1003 0 0 42.1200 138.387 9 22 1003 12 43
2021219N08193 2021 60 WP MM OMAIS 2021-08-25 12:00:00 ET 42.5500 138.750 1004 tokyo main 81 66 _OO___________ -5 42.4000 138.600 6 1004 0 0 0 42.7000 138.900 9 19 1005 12 36
2021219N08193 2021 60 WP MM OMAIS 2021-08-25 15:00:00 ET 43.0326 139.176 main 66 58 _PP___________ -5 42.8894 139.156 6 1004 0 0 43.1758 139.195 9 19 1005 13 33
2021219N08193 2021 60 WP MM OMAIS 2021-08-25 18:00:00 ET 43.6000 139.700 1004 tokyo main 58 58 _OO___________ -5 43.5000 139.800 6 1004 0 0 0 43.7000 139.600 9 19 1005 16 37
2021219N08193 2021 60 WP MM OMAIS 2021-08-25 21:00:00 ET 44.2958 140.477 main 87 23 _PP___________ -5 44.1990 140.526 6 1005 0 0 44.3927 140.428 9 19 1005 19 42
2021219N08193 2021 60 WP MM OMAIS 2021-08-26 00:00:00 ET 45.0000 141.450 1006 tokyo main 15 0 _OO___________ -5 44.9000 141.400 6 1006 0 0 0 45.1000 141.500 9 19 1005 20 49
2021219N08193 2021 60 WP MM OMAIS 2021-08-26 03:00:00 ET 45.5891 142.605 main 51 0 _PP___________ -5 45.4967 142.521 6 1005 0 0 45.6814 142.688 9 19 1004 19 55
2021219N08193 2021 60 WP MM OMAIS 2021-08-26 06:00:00 ET 46.1000 143.700 1004 tokyo main 18 18 _OO___________ -5 46.0000 143.600 6 1004 0 0 0 46.2000 143.800 9 19 1004 16 52
2021219N08193 2021 60 WP MM OMAIS 2021-08-26 09:00:00 ET 46.5740 144.427 main 68 68 _PP___________ -5 46.4128 144.299 6 1003 0 0 46.7352 144.555 9 19 1003 13 46
2021219N08193 2021 60 WP MM OMAIS 2021-08-26 12:00:00 ET 47.0000 145.050 1002 tokyo main 125 118 _OO___________ -5 46.8000 144.900 6 1002 0 0 0 47.2000 145.200 9 19 1002 13 48
2021219N08193 2021 60 WP MM OMAIS 2021-08-26 15:00:00 ET 47.4351 145.849 main 156 150 _PP___________ -5 47.3022 145.668 6 1002 0 0 47.5680 146.030 9 19 1002 13 55
2021219N08193 2021 60 WP MM OMAIS 2021-08-26 18:00:00 ET 47.7500 146.650 1002 tokyo main 172 165 _OO___________ -5 47.7000 146.500 6 1002 0 0 0 47.8000 146.800 9 19 1002 11 68
2021219N08193 2021 60 WP MM OMAIS 2021-08-26 21:00:00 ET 47.8483 147.357 main 218 213 _PP___________ -5 47.7952 147.383 6 1001 0 0 47.9013 147.331 9 19 1002 9 84
2021219N08193 2021 60 WP MM OMAIS 2021-08-27 00:00:00 ET 47.8500 148.000 1000 tokyo main 255 237 _OO___________ -5 47.8000 148.200 6 1000 0 0 0 47.9000 147.800 9 19 1002 8 88
2021219N08193 2021 60 WP MM OMAIS 2021-08-27 03:00:00 ET 47.8744 148.501 main 237 216 _PP___________ -5 47.9383 148.703 6 1000 0 0 47.8105 148.298 9 19 1002 8 83
2021219N08193 2021 60 WP MM OMAIS 2021-08-27 06:00:00 ET 47.9500 149.200 1000 tokyo main 224 211 _OO___________ -5 48.1000 149.400 6 1000 0 0 0 47.8000 149.000 9 19 1002 14 80
2021219N08193 2021 60 WP MM OMAIS 2021-08-27 09:00:00 ET 48.1056 150.523 main 222 222 _PP___________ -5 48.1843 150.916 6 1000 0 0 48.0268 150.131 9 19 1002 18 77
2021219N08193 2021 60 WP MM OMAIS 2021-08-27 12:00:00 ET 48.3500 151.900 1000 tokyo main 279 237 _OO___________ -5 48.3000 152.400 6 1000 0 0 0 48.4000 151.400 9 19 1002 16 68
2021219N08193 2021 60 WP MM OMAIS 2021-08-27 15:00:00 ET 48.6919 152.729 main 237 170 _PP___________ -5 48.5426 152.971 6 1000 0 0 48.8413 152.487 9 22 1001 13 54
2021219N08193 2021 60 WP MM OMAIS 2021-08-27 18:00:00 ET 49.1000 153.450 1000 tokyo main 164 87 _OO___________ -5 48.9000 153.400 6 1000 0 0 0 49.3000 153.500 9 25 1000 14 54
2021219N08193 2021 60 WP MM OMAIS 2021-08-27 21:00:00 ET 49.5234 154.459 main 83 11 _PP___________ -5 49.3670 154.408 6 1000 0 0 49.6798 154.511 9 25 1000 15 58
2021219N08193 2021 60 WP MM OMAIS 2021-08-28 00:00:00 ET 49.9000 155.450 1000 tokyo main 13 11 _OO___________ -5 49.8000 155.500 6 1000 0 0 0 50.0000 155.400 9 25 1000 13 61
2021219N08193 2021 60 WP MM OMAIS 2021-08-28 03:00:00 ET 50.1616 156.227 main 21 21 _PP___________ -5 50.0367 156.343 6 999 0 0 50.2865 156.111 9 25 999 10 63
2021219N08193 2021 60 WP MM OMAIS 2021-08-28 06:00:00 ET 50.3500 156.850 998 tokyo main 50 50 _OO___________ -5 50.2000 157.000 6 998 0 0 0 50.5000 156.700 9 25 998 8 64
2021219N08193 2021 60 WP MM OMAIS 2021-08-28 09:00:00 ET 50.5257 157.388 main 66 65 _PP___________ -5 50.4217 157.495 6 998 0 0 50.6297 157.281 9 22 998 7 65
2021219N08193 2021 60 WP MM OMAIS 2021-08-28 12:00:00 ET 50.6500 157.850 998 tokyo main 76 76 _OO___________ -5 50.6000 157.900 6 998 0 0 0 50.7000 157.800 9 19 998 6 73
2021219N08193 2021 60 WP MM OMAIS 2021-08-28 15:00:00 ET 50.7034 158.305 main 95 95 _PP___________ -5 50.6574 158.359 6 997 0 0 50.7495 158.251 9 19 996 6 80
2021219N08193 2021 60 WP MM OMAIS 2021-08-28 18:00:00 ET 50.7500 158.750 996 tokyo main 108 108 _OO___________ -5 50.7000 158.800 6 996 0 0 0 50.8000 158.700 9 19 995 6 74
2021219N08193 2021 60 WP MM OMAIS 2021-08-28 21:00:00 ET 50.8790 159.258 main 124 124 _PP___________ -5 50.8576 159.252 6 996 0 0 50.9003 159.265 9 19 995 6 67
2021219N08193 2021 60 WP MM OMAIS 2021-08-29 00:00:00 ET 51.0000 159.700 996 tokyo main 140 140 _OO___________ -5 51.0000 159.600 6 996 0 0 0 51.0000 159.800 9 19 995 4 68
2021219N08193 2021 60 WP MM OMAIS 2021-08-29 03:00:00 ET 51.0429 159.907 main 152 152 _PP___________ -5 51.0213 159.640 6 996 0 0 51.0645 160.173 9 19 995 3 80
2021219N08193 2021 60 WP MM OMAIS 2021-08-29 06:00:00 ET 51.0500 160.150 996 tokyo main 163 158 _OO___________ -5 51.0000 159.800 6 996 0 0 0 51.1000 160.500 9 19 995 5 89
2021219N08193 2021 60 WP MM OMAIS 2021-08-29 09:00:00 ET 51.0543 160.694 main 192 192 _PP___________ -5 51.0021 160.562 6 997 0 0 51.1065 160.825 9 19 996 8 90
2021219N08193 2021 60 WP MM OMAIS 2021-08-29 12:00:00 ET 51.0500 161.350 998 tokyo main 235 235 _OO___________ -5 51.0000 161.400 6 998 0 0 0 51.1000 161.300 9 19 998 7 90
2021219N08193 2021 60 WP MM OMAIS 2021-08-29 15:00:00 ET 51.0525 161.886 main 253 253 _PP___________ -5 50.9966 161.675 6 998 0 0 51.1084 162.097 9 19 998 8 90
2021219N08193 2021 60 WP MM OMAIS 2021-08-29 18:00:00 ET 51.0500 162.550 998 tokyo main 279 279 _OO___________ -5 51.0000 162.100 6 998 0 0 0 51.1000 163.000 9 19 998 10 91
2021219N08193 2021 60 WP MM OMAIS 2021-08-29 21:00:00 ET 51.0414 163.533 main 328 328 _PP___________ -5 51.0198 163.354 6 998 0 0 51.0630 163.712 9 19 998 13 92
2021219N08193 2021 60 WP MM OMAIS 2021-08-30 00:00:00 ET 51.0000 164.614 998 tokyo main 384 384 _OO___________ -5 51.0000 164.700 6 998 0 0 0 51.0000 164.500 9 19 998 12 97
2021219N08193 2021 60 WP MM OMAIS 2021-08-30 03:00:00 ET 50.8949 165.390 main 435 435 _PP___________ -5 50.8869 165.321 6 998 0 0 50.9109 165.526 9 19 999 10 102
2021219N08193 2021 60 WP MM OMAIS 2021-08-30 06:00:00 ET 50.8000 166.140 998 tokyo main 481 481 _OO___________ -5 50.8000 166.000 6 998 0 0 0 50.8000 166.700 9 19 1000 13 94
2021219N08193 2021 60 WP MM OMAIS 2021-08-30 09:00:00 ET 50.8082 167.403 main 558 558 _P____________ -5 50.8082 167.403 6 999 0 0 9 18 87
2021219N08193 2021 60 WP MM OMAIS 2021-08-30 12:00:00 ET 50.9000 169.000 1000 tokyo main 624 624 _O____________ -5 50.9000 169.000 6 1000 0 0 0 19 81
2021219N08193 2021 60 WP MM OMAIS 2021-08-30 15:00:00 ET 51.0898 170.321 main 676 676 _P____________ -5 51.0898 170.321 6 1000 0 0 17 76
2021219N08193 2021 60 WP MM OMAIS 2021-08-30 18:00:00 ET 51.3000 171.600 1000 tokyo main 735 735 _O____________ -5 51.3000 171.600 6 1000 0 0 0 17 79
2021219N08193 2021 60 WP MM OMAIS 2021-08-30 21:00:00 ET 51.4144 172.967 main 810 810 _P____________ -5 51.4144 172.967 6 1000 0 0 17 83
2021219N08193 2021 60 WP MM OMAIS 2021-08-31 00:00:00 ET 51.5000 174.300 1000 tokyo main 879 879 _O____________ -5 51.5000 174.300 6 1000 0 0 0 16 83
2021219N08193 2021 60 WP MM OMAIS 2021-08-31 03:00:00 ET 51.5968 175.486 main 936 936 _P____________ -5 51.5968 175.486 6 1001 0 0 15 82
2021219N08193 2021 60 WP MM OMAIS 2021-08-31 06:00:00 ET 51.7000 176.700 1002 tokyo main 981 892 _O____________ -5 51.7000 176.700 6 1002 0 0 0 16 83
2021219N08193 2021 60 WP MM OMAIS 2021-08-31 09:00:00 ET 51.8051 178.091 main 885 789 _P____________ -5 51.8051 178.091 6 1002 0 0 18 84
2021219N08193 2021 60 WP MM OMAIS 2021-08-31 12:00:00 ET 51.9000 179.600 1002 tokyo main 783 _O____________ -5 51.9000 179.600 6 1002 0 0 0 19 84

About IBTrACS Database

This database is a web-friendly format of International Best Track Archive for Climate Stewardship (IBTrACS), a global best track data archive curated by NOAA dating back to 1842.

Updated: 2022-11-16